sensor_id;sensor_type;location;lat;lon;timestamp;P1;durP1;ratioP1;P2;durP2;ratioP2
17228;SDS011;8731;50.364;8.958;2024-01-16T00:00:40;6.40;;;1.93;;
17228;SDS011;8731;50.364;8.958;2024-01-16T00:05:05;5.27;;;2.17;;
17228;SDS011;8731;50.364;8.958;2024-01-16T00:09:28;7.23;;;2.00;;
17228;SDS011;8731;50.364;8.958;2024-01-16T00:13:50;7.00;;;2.10;;
17228;SDS011;8731;50.364;8.958;2024-01-16T00:18:14;5.10;;;1.60;;
17228;SDS011;8731;50.364;8.958;2024-01-16T00:22:38;6.40;;;1.93;;
17228;SDS011;8731;50.364;8.958;2024-01-16T00:27:00;5.90;;;1.87;;
17228;SDS011;8731;50.364;8.958;2024-01-16T00:31:22;9.03;;;2.43;;
17228;SDS011;8731;50.364;8.958;2024-01-16T00:35:45;3.73;;;2.03;;
17228;SDS011;8731;50.364;8.958;2024-01-16T00:40:10;6.20;;;1.90;;
17228;SDS011;8731;50.364;8.958;2024-01-16T00:44:33;4.80;;;1.57;;
17228;SDS011;8731;50.364;8.958;2024-01-16T00:48:56;7.17;;;2.27;;
17228;SDS011;8731;50.364;8.958;2024-01-16T00:53:18;7.57;;;1.80;;
17228;SDS011;8731;50.364;8.958;2024-01-16T00:57:42;5.43;;;2.03;;
17228;SDS011;8731;50.364;8.958;2024-01-16T01:02:04;6.40;;;2.10;;
17228;SDS011;8731;50.364;8.958;2024-01-16T01:06:29;5.70;;;2.27;;
17228;SDS011;8731;50.364;8.958;2024-01-16T01:10:54;7.53;;;2.70;;
17228;SDS011;8731;50.364;8.958;2024-01-16T01:15:18;4.47;;;2.00;;
17228;SDS011;8731;50.364;8.958;2024-01-16T01:19:40;5.57;;;2.03;;
17228;SDS011;8731;50.364;8.958;2024-01-16T01:24:03;4.77;;;2.00;;
17228;SDS011;8731;50.364;8.958;2024-01-16T01:28:26;7.07;;;2.10;;
17228;SDS011;8731;50.364;8.958;2024-01-16T01:32:50;4.97;;;2.20;;
17228;SDS011;8731;50.364;8.958;2024-01-16T01:37:12;5.27;;;2.20;;
17228;SDS011;8731;50.364;8.958;2024-01-16T01:41:35;5.03;;;2.30;;
17228;SDS011;8731;50.364;8.958;2024-01-16T01:46:08;6.77;;;2.80;;
17228;SDS011;8731;50.364;8.958;2024-01-16T01:50:36;6.13;;;2.63;;
17228;SDS011;8731;50.364;8.958;2024-01-16T01:54:59;4.73;;;2.20;;
17228;SDS011;8731;50.364;8.958;2024-01-16T01:59:23;7.20;;;2.50;;
17228;SDS011;8731;50.364;8.958;2024-01-16T02:03:46;5.03;;;2.50;;
17228;SDS011;8731;50.364;8.958;2024-01-16T02:08:13;7.43;;;2.43;;
17228;SDS011;8731;50.364;8.958;2024-01-16T02:12:36;5.77;;;3.10;;
17228;SDS011;8731;50.364;8.958;2024-01-16T02:16:58;5.60;;;2.60;;
17228;SDS011;8731;50.364;8.958;2024-01-16T02:21:21;6.50;;;2.70;;
17228;SDS011;8731;50.364;8.958;2024-01-16T02:25:47;6.87;;;2.70;;
17228;SDS011;8731;50.364;8.958;2024-01-16T02:30:10;6.03;;;2.70;;
17228;SDS011;8731;50.364;8.958;2024-01-16T02:34:33;5.87;;;2.90;;
17228;SDS011;8731;50.364;8.958;2024-01-16T02:38:56;5.10;;;2.53;;
17228;SDS011;8731;50.364;8.958;2024-01-16T02:43:20;10.47;;;2.80;;
17228;SDS011;8731;50.364;8.958;2024-01-16T02:47:43;5.67;;;2.70;;
17228;SDS011;8731;50.364;8.958;2024-01-16T02:52:05;5.37;;;2.90;;
17228;SDS011;8731;50.364;8.958;2024-01-16T02:56:27;6.00;;;2.50;;
17228;SDS011;8731;50.364;8.958;2024-01-16T03:00:51;8.03;;;3.10;;
17228;SDS011;8731;50.364;8.958;2024-01-16T03:05:14;7.10;;;2.97;;
17228;SDS011;8731;50.364;8.958;2024-01-16T03:09:37;6.10;;;3.33;;
17228;SDS011;8731;50.364;8.958;2024-01-16T03:13:59;5.97;;;2.70;;
17228;SDS011;8731;50.364;8.958;2024-01-16T03:18:24;9.17;;;3.37;;
17228;SDS011;8731;50.364;8.958;2024-01-16T03:22:47;5.20;;;2.90;;
17228;SDS011;8731;50.364;8.958;2024-01-16T03:27:10;7.60;;;3.40;;
17228;SDS011;8731;50.364;8.958;2024-01-16T03:31:32;5.00;;;3.43;;
17228;SDS011;8731;50.364;8.958;2024-01-16T03:35:56;6.97;;;3.23;;
17228;SDS011;8731;50.364;8.958;2024-01-16T03:40:18;8.07;;;3.50;;
17228;SDS011;8731;50.364;8.958;2024-01-16T03:44:41;6.23;;;3.50;;
17228;SDS011;8731;50.364;8.958;2024-01-16T03:49:03;5.93;;;3.97;;
17228;SDS011;8731;50.364;8.958;2024-01-16T03:53:27;8.27;;;4.07;;
17228;SDS011;8731;50.364;8.958;2024-01-16T03:57:50;8.97;;;4.00;;
17228;SDS011;8731;50.364;8.958;2024-01-16T04:02:12;6.33;;;3.97;;
17228;SDS011;8731;50.364;8.958;2024-01-16T04:06:35;10.03;;;4.40;;
17228;SDS011;8731;50.364;8.958;2024-01-16T04:10:59;6.60;;;4.17;;
17228;SDS011;8731;50.364;8.958;2024-01-16T04:15:21;15.03;;;7.50;;
17228;SDS011;8731;50.364;8.958;2024-01-16T04:19:44;10.97;;;6.87;;
17228;SDS011;8731;50.364;8.958;2024-01-16T04:24:06;13.97;;;6.97;;
17228;SDS011;8731;50.364;8.958;2024-01-16T04:28:32;11.73;;;6.30;;
17228;SDS011;8731;50.364;8.958;2024-01-16T04:32:54;11.57;;;5.90;;
17228;SDS011;8731;50.364;8.958;2024-01-16T04:37:16;16.83;;;6.77;;
17228;SDS011;8731;50.364;8.958;2024-01-16T04:41:39;14.30;;;5.83;;
17228;SDS011;8731;50.364;8.958;2024-01-16T04:46:03;11.13;;;6.37;;
17228;SDS011;8731;50.364;8.958;2024-01-16T04:50:26;11.37;;;5.97;;
17228;SDS011;8731;50.364;8.958;2024-01-16T04:54:52;7.50;;;4.90;;
17228;SDS011;8731;50.364;8.958;2024-01-16T04:59:15;12.03;;;5.50;;
17228;SDS011;8731;50.364;8.958;2024-01-16T05:03:39;9.30;;;5.07;;
17228;SDS011;8731;50.364;8.958;2024-01-16T05:08:01;9.33;;;4.70;;
17228;SDS011;8731;50.364;8.958;2024-01-16T05:12:25;10.57;;;4.77;;
17228;SDS011;8731;50.364;8.958;2024-01-16T05:16:47;7.53;;;5.03;;
17228;SDS011;8731;50.364;8.958;2024-01-16T05:21:12;10.47;;;5.00;;
17228;SDS011;8731;50.364;8.958;2024-01-16T05:25:36;9.30;;;5.03;;
17228;SDS011;8731;50.364;8.958;2024-01-16T05:30:00;8.53;;;4.77;;
17228;SDS011;8731;50.364;8.958;2024-01-16T05:34:24;8.37;;;4.57;;
17228;SDS011;8731;50.364;8.958;2024-01-16T05:38:49;11.53;;;4.63;;
17228;SDS011;8731;50.364;8.958;2024-01-16T05:43:13;8.57;;;4.70;;
17228;SDS011;8731;50.364;8.958;2024-01-16T05:47:36;9.87;;;5.33;;
17228;SDS011;8731;50.364;8.958;2024-01-16T05:51:58;10.70;;;4.30;;
17228;SDS011;8731;50.364;8.958;2024-01-16T05:56:22;10.63;;;5.27;;
17228;SDS011;8731;50.364;8.958;2024-01-16T06:00:45;11.10;;;4.80;;
17228;SDS011;8731;50.364;8.958;2024-01-16T06:05:09;6.80;;;3.90;;
17228;SDS011;8731;50.364;8.958;2024-01-16T06:09:32;9.47;;;4.80;;
17228;SDS011;8731;50.364;8.958;2024-01-16T06:13:56;9.93;;;5.00;;
17228;SDS011;8731;50.364;8.958;2024-01-16T06:18:18;13.40;;;5.50;;
17228;SDS011;8731;50.364;8.958;2024-01-16T06:22:43;13.67;;;6.20;;
17228;SDS011;8731;50.364;8.958;2024-01-16T06:27:06;7.93;;;4.63;;
17228;SDS011;8731;50.364;8.958;2024-01-16T06:31:30;11.37;;;6.53;;
17228;SDS011;8731;50.364;8.958;2024-01-16T06:35:54;9.67;;;6.27;;
17228;SDS011;8731;50.364;8.958;2024-01-16T06:40:18;12.20;;;6.37;;
17228;SDS011;8731;50.364;8.958;2024-01-16T06:44:41;12.03;;;7.23;;
17228;SDS011;8731;50.364;8.958;2024-01-16T06:49:04;14.50;;;6.63;;
17228;SDS011;8731;50.364;8.958;2024-01-16T06:53:27;14.03;;;6.27;;
17228;SDS011;8731;50.364;8.958;2024-01-16T06:57:49;11.63;;;5.87;;
17228;SDS011;8731;50.364;8.958;2024-01-16T07:02:15;13.00;;;5.70;;
17228;SDS011;8731;50.364;8.958;2024-01-16T07:06:42;12.10;;;5.47;;
17228;SDS011;8731;50.364;8.958;2024-01-16T07:11:14;14.93;;;5.47;;
17228;SDS011;8731;50.364;8.958;2024-01-16T07:15:36;16.60;;;7.27;;
17228;SDS011;8731;50.364;8.958;2024-01-16T07:19:58;10.07;;;5.13;;
17228;SDS011;8731;50.364;8.958;2024-01-16T07:24:22;15.03;;;6.77;;
17228;SDS011;8731;50.364;8.958;2024-01-16T07:28:45;10.37;;;6.93;;
17228;SDS011;8731;50.364;8.958;2024-01-16T07:33:08;11.57;;;7.20;;
17228;SDS011;8731;50.364;8.958;2024-01-16T07:37:31;17.73;;;6.37;;
17228;SDS011;8731;50.364;8.958;2024-01-16T07:41:58;12.80;;;6.07;;
17228;SDS011;8731;50.364;8.958;2024-01-16T07:46:21;13.03;;;5.13;;
17228;SDS011;8731;50.364;8.958;2024-01-16T07:50:43;14.53;;;5.63;;
17228;SDS011;8731;50.364;8.958;2024-01-16T07:55:07;7.53;;;4.60;;
17228;SDS011;8731;50.364;8.958;2024-01-16T07:59:31;7.43;;;5.40;;
17228;SDS011;8731;50.364;8.958;2024-01-16T08:03:54;17.90;;;8.87;;
17228;SDS011;8731;50.364;8.958;2024-01-16T08:08:18;10.13;;;5.30;;
17228;SDS011;8731;50.364;8.958;2024-01-16T08:12:40;12.57;;;5.77;;
17228;SDS011;8731;50.364;8.958;2024-01-16T08:17:05;11.63;;;6.23;;
17228;SDS011;8731;50.364;8.958;2024-01-16T08:21:28;12.47;;;7.53;;
17228;SDS011;8731;50.364;8.958;2024-01-16T08:25:50;12.10;;;6.47;;
17228;SDS011;8731;50.364;8.958;2024-01-16T08:30:13;10.33;;;5.37;;
17228;SDS011;8731;50.364;8.958;2024-01-16T08:34:40;13.17;;;6.80;;
17228;SDS011;8731;50.364;8.958;2024-01-16T08:39:03;14.33;;;6.50;;
17228;SDS011;8731;50.364;8.958;2024-01-16T08:43:28;8.40;;;6.63;;
17228;SDS011;8731;50.364;8.958;2024-01-16T08:47:51;10.70;;;5.77;;
17228;SDS011;8731;50.364;8.958;2024-01-16T08:52:16;13.03;;;6.27;;
17228;SDS011;8731;50.364;8.958;2024-01-16T08:56:38;9.53;;;6.13;;
17228;SDS011;8731;50.364;8.958;2024-01-16T09:01:01;9.63;;;6.90;;
17228;SDS011;8731;50.364;8.958;2024-01-16T09:05:24;10.63;;;5.47;;
17228;SDS011;8731;50.364;8.958;2024-01-16T09:09:48;7.93;;;5.93;;
17228;SDS011;8731;50.364;8.958;2024-01-16T09:14:15;11.87;;;5.60;;
17228;SDS011;8731;50.364;8.958;2024-01-16T09:18:40;11.77;;;6.10;;
17228;SDS011;8731;50.364;8.958;2024-01-16T09:23:02;13.70;;;6.67;;
17228;SDS011;8731;50.364;8.958;2024-01-16T09:27:27;8.63;;;5.70;;
17228;SDS011;8731;50.364;8.958;2024-01-16T09:31:49;12.63;;;7.23;;
17228;SDS011;8731;50.364;8.958;2024-01-16T09:36:15;9.13;;;5.90;;
17228;SDS011;8731;50.364;8.958;2024-01-16T09:40:38;10.43;;;5.80;;
17228;SDS011;8731;50.364;8.958;2024-01-16T09:45:06;14.50;;;6.60;;
17228;SDS011;8731;50.364;8.958;2024-01-16T09:49:32;12.03;;;6.27;;
17228;SDS011;8731;50.364;8.958;2024-01-16T09:53:57;14.27;;;7.57;;
17228;SDS011;8731;50.364;8.958;2024-01-16T09:58:20;13.00;;;6.77;;
17228;SDS011;8731;50.364;8.958;2024-01-16T10:02:45;14.47;;;6.47;;
17228;SDS011;8731;50.364;8.958;2024-01-16T10:07:10;7.90;;;6.03;;
17228;SDS011;8731;50.364;8.958;2024-01-16T10:11:36;11.70;;;5.90;;
17228;SDS011;8731;50.364;8.958;2024-01-16T10:15:59;11.27;;;5.93;;
17228;SDS011;8731;50.364;8.958;2024-01-16T10:20:33;10.77;;;6.63;;
17228;SDS011;8731;50.364;8.958;2024-01-16T10:25:03;11.70;;;6.90;;
17228;SDS011;8731;50.364;8.958;2024-01-16T10:29:29;13.27;;;6.40;;
17228;SDS011;8731;50.364;8.958;2024-01-16T10:33:52;10.00;;;6.20;;
17228;SDS011;8731;50.364;8.958;2024-01-16T10:38:20;10.50;;;6.77;;
17228;SDS011;8731;50.364;8.958;2024-01-16T10:42:43;10.03;;;6.17;;
17228;SDS011;8731;50.364;8.958;2024-01-16T10:47:09;11.23;;;6.93;;
17228;SDS011;8731;50.364;8.958;2024-01-16T10:51:33;13.50;;;6.20;;
17228;SDS011;8731;50.364;8.958;2024-01-16T10:55:57;10.57;;;6.57;;
17228;SDS011;8731;50.364;8.958;2024-01-16T11:00:23;15.30;;;8.20;;
17228;SDS011;8731;50.364;8.958;2024-01-16T11:04:46;9.43;;;6.17;;
17228;SDS011;8731;50.364;8.958;2024-01-16T11:09:12;9.03;;;6.30;;
17228;SDS011;8731;50.364;8.958;2024-01-16T11:13:38;14.50;;;7.77;;
17228;SDS011;8731;50.364;8.958;2024-01-16T11:18:01;11.40;;;6.70;;
17228;SDS011;8731;50.364;8.958;2024-01-16T11:22:26;10.27;;;6.27;;
17228;SDS011;8731;50.364;8.958;2024-01-16T11:26:49;11.37;;;6.33;;
17228;SDS011;8731;50.364;8.958;2024-01-16T11:35:52;12.87;;;6.50;;
17228;SDS011;8731;50.364;8.958;2024-01-16T11:40:24;13.73;;;7.67;;
17228;SDS011;8731;50.364;8.958;2024-01-16T11:44:48;10.60;;;6.50;;
17228;SDS011;8731;50.364;8.958;2024-01-16T11:49:13;12.30;;;6.63;;
17228;SDS011;8731;50.364;8.958;2024-01-16T11:53:41;11.97;;;6.30;;
17228;SDS011;8731;50.364;8.958;2024-01-16T11:58:10;11.83;;;6.60;;
17228;SDS011;8731;50.364;8.958;2024-01-16T12:02:58;9.03;;;5.50;;
17228;SDS011;8731;50.364;8.958;2024-01-16T12:07:26;10.60;;;5.90;;
17228;SDS011;8731;50.364;8.958;2024-01-16T12:11:55;9.23;;;5.53;;
17228;SDS011;8731;50.364;8.958;2024-01-16T12:16:19;8.73;;;6.00;;
17228;SDS011;8731;50.364;8.958;2024-01-16T12:20:44;10.00;;;5.73;;
17228;SDS011;8731;50.364;8.958;2024-01-16T12:25:08;8.93;;;5.80;;
17228;SDS011;8731;50.364;8.958;2024-01-16T12:29:31;11.70;;;5.73;;
17228;SDS011;8731;50.364;8.958;2024-01-16T12:33:54;9.77;;;5.47;;
17228;SDS011;8731;50.364;8.958;2024-01-16T12:38:27;9.80;;;5.90;;
17228;SDS011;8731;50.364;8.958;2024-01-16T12:42:51;9.47;;;7.50;;
17228;SDS011;8731;50.364;8.958;2024-01-16T12:47:15;9.07;;;4.93;;
17228;SDS011;8731;50.364;8.958;2024-01-16T12:51:39;9.30;;;4.87;;
17228;SDS011;8731;50.364;8.958;2024-01-16T12:56:02;10.83;;;7.23;;
17228;SDS011;8731;50.364;8.958;2024-01-16T13:00:29;10.50;;;5.60;;
17228;SDS011;8731;50.364;8.958;2024-01-16T13:04:56;8.30;;;4.90;;
17228;SDS011;8731;50.364;8.958;2024-01-16T13:09:19;8.10;;;5.93;;
17228;SDS011;8731;50.364;8.958;2024-01-16T13:13:46;15.70;;;5.87;;
17228;SDS011;8731;50.364;8.958;2024-01-16T13:18:20;14.27;;;5.47;;
17228;SDS011;8731;50.364;8.958;2024-01-16T13:22:43;13.27;;;5.73;;
17228;SDS011;8731;50.364;8.958;2024-01-16T13:27:05;9.67;;;6.03;;
17228;SDS011;8731;50.364;8.958;2024-01-16T13:31:29;14.60;;;6.30;;
17228;SDS011;8731;50.364;8.958;2024-01-16T13:35:53;14.07;;;6.07;;
17228;SDS011;8731;50.364;8.958;2024-01-16T13:40:16;12.43;;;6.27;;
17228;SDS011;8731;50.364;8.958;2024-01-16T13:44:39;12.60;;;6.00;;
17228;SDS011;8731;50.364;8.958;2024-01-16T13:49:02;10.07;;;5.90;;
17228;SDS011;8731;50.364;8.958;2024-01-16T13:53:28;15.70;;;5.60;;
17228;SDS011;8731;50.364;8.958;2024-01-16T13:57:50;14.93;;;6.87;;
17228;SDS011;8731;50.364;8.958;2024-01-16T14:02:12;8.10;;;5.10;;
17228;SDS011;8731;50.364;8.958;2024-01-16T14:06:35;10.43;;;5.47;;
17228;SDS011;8731;50.364;8.958;2024-01-16T14:10:59;9.10;;;5.77;;
17228;SDS011;8731;50.364;8.958;2024-01-16T14:15:21;11.37;;;6.53;;
17228;SDS011;8731;50.364;8.958;2024-01-16T14:19:45;10.13;;;4.73;;
17228;SDS011;8731;50.364;8.958;2024-01-16T14:24:08;20.50;;;5.70;;
17228;SDS011;8731;50.364;8.958;2024-01-16T14:28:32;13.30;;;4.83;;
17228;SDS011;8731;50.364;8.958;2024-01-16T14:32:55;14.53;;;5.37;;
17228;SDS011;8731;50.364;8.958;2024-01-16T14:37:17;9.60;;;5.03;;
17228;SDS011;8731;50.364;8.958;2024-01-16T14:41:40;11.17;;;6.03;;
17228;SDS011;8731;50.364;8.958;2024-01-16T14:46:04;20.13;;;6.30;;
17228;SDS011;8731;50.364;8.958;2024-01-16T14:50:30;9.97;;;5.23;;
17228;SDS011;8731;50.364;8.958;2024-01-16T14:54:53;12.87;;;6.10;;
17228;SDS011;8731;50.364;8.958;2024-01-16T14:59:15;11.97;;;5.57;;
17228;SDS011;8731;50.364;8.958;2024-01-16T15:03:39;11.30;;;6.13;;
17228;SDS011;8731;50.364;8.958;2024-01-16T15:08:02;12.10;;;6.23;;
17228;SDS011;8731;50.364;8.958;2024-01-16T15:12:26;11.07;;;6.20;;
17228;SDS011;8731;50.364;8.958;2024-01-16T15:16:49;8.87;;;5.63;;
17228;SDS011;8731;50.364;8.958;2024-01-16T15:21:13;11.07;;;6.47;;
17228;SDS011;8731;50.364;8.958;2024-01-16T15:25:35;13.20;;;7.23;;
17228;SDS011;8731;50.364;8.958;2024-01-16T15:29:58;10.40;;;6.37;;
17228;SDS011;8731;50.364;8.958;2024-01-16T15:34:21;11.93;;;5.67;;
17228;SDS011;8731;50.364;8.958;2024-01-16T15:38:45;13.60;;;5.43;;
17228;SDS011;8731;50.364;8.958;2024-01-16T15:43:07;12.27;;;5.67;;
17228;SDS011;8731;50.364;8.958;2024-01-16T15:47:30;11.53;;;6.30;;
17228;SDS011;8731;50.364;8.958;2024-01-16T15:51:53;13.53;;;6.07;;
17228;SDS011;8731;50.364;8.958;2024-01-16T15:56:18;15.50;;;6.80;;
17228;SDS011;8731;50.364;8.958;2024-01-16T16:00:40;12.97;;;7.80;;
17228;SDS011;8731;50.364;8.958;2024-01-16T16:05:04;21.93;;;11.70;;
17228;SDS011;8731;50.364;8.958;2024-01-16T16:09:27;19.70;;;11.33;;
17228;SDS011;8731;50.364;8.958;2024-01-16T16:13:52;22.20;;;11.23;;
17228;SDS011;8731;50.364;8.958;2024-01-16T16:18:14;17.40;;;10.70;;
17228;SDS011;8731;50.364;8.958;2024-01-16T16:22:37;17.20;;;11.10;;
17228;SDS011;8731;50.364;8.958;2024-01-16T16:26:59;17.67;;;10.53;;
17228;SDS011;8731;50.364;8.958;2024-01-16T16:31:26;21.83;;;13.33;;
17228;SDS011;8731;50.364;8.958;2024-01-16T16:35:50;27.90;;;15.47;;
17228;SDS011;8731;50.364;8.958;2024-01-16T16:40:14;21.03;;;13.37;;
17228;SDS011;8731;50.364;8.958;2024-01-16T16:44:36;22.10;;;13.00;;
17228;SDS011;8731;50.364;8.958;2024-01-16T16:49:00;31.37;;;16.63;;
17228;SDS011;8731;50.364;8.958;2024-01-16T16:53:22;19.33;;;13.50;;
17228;SDS011;8731;50.364;8.958;2024-01-16T16:57:45;25.83;;;12.93;;
17228;SDS011;8731;50.364;8.958;2024-01-16T17:02:08;22.63;;;14.03;;
17228;SDS011;8731;50.364;8.958;2024-01-16T17:06:32;35.20;;;21.03;;
17228;SDS011;8731;50.364;8.958;2024-01-16T17:10:54;19.23;;;11.30;;
17228;SDS011;8731;50.364;8.958;2024-01-16T17:15:17;18.93;;;10.47;;
17228;SDS011;8731;50.364;8.958;2024-01-16T17:19:41;19.27;;;10.67;;
17228;SDS011;8731;50.364;8.958;2024-01-16T17:24:09;22.00;;;13.07;;
17228;SDS011;8731;50.364;8.958;2024-01-16T17:28:32;16.20;;;9.50;;
17228;SDS011;8731;50.364;8.958;2024-01-16T17:32:54;20.70;;;11.00;;
17228;SDS011;8731;50.364;8.958;2024-01-16T17:37:17;17.90;;;9.17;;
17228;SDS011;8731;50.364;8.958;2024-01-16T17:41:40;27.07;;;13.17;;
17228;SDS011;8731;50.364;8.958;2024-01-16T17:46:05;32.57;;;18.33;;
17228;SDS011;8731;50.364;8.958;2024-01-16T17:50:28;25.83;;;15.03;;
17228;SDS011;8731;50.364;8.958;2024-01-16T17:54:52;21.33;;;14.47;;
17228;SDS011;8731;50.364;8.958;2024-01-16T17:59:16;20.50;;;12.67;;
17228;SDS011;8731;50.364;8.958;2024-01-16T18:03:39;18.90;;;12.33;;
17228;SDS011;8731;50.364;8.958;2024-01-16T18:08:03;21.77;;;12.50;;
17228;SDS011;8731;50.364;8.958;2024-01-16T18:12:28;17.93;;;10.43;;
17228;SDS011;8731;50.364;8.958;2024-01-16T18:16:52;17.63;;;9.83;;
17228;SDS011;8731;50.364;8.958;2024-01-16T18:21:15;22.07;;;12.07;;
17228;SDS011;8731;50.364;8.958;2024-01-16T18:25:39;18.43;;;11.57;;
17228;SDS011;8731;50.364;8.958;2024-01-16T18:30:03;21.23;;;11.37;;
17228;SDS011;8731;50.364;8.958;2024-01-16T18:34:30;18.63;;;11.07;;
17228;SDS011;8731;50.364;8.958;2024-01-16T18:38:54;22.17;;;12.33;;
17228;SDS011;8731;50.364;8.958;2024-01-16T18:43:17;25.43;;;14.40;;
17228;SDS011;8731;50.364;8.958;2024-01-16T18:47:44;25.47;;;13.77;;
17228;SDS011;8731;50.364;8.958;2024-01-16T18:52:10;23.00;;;13.97;;
17228;SDS011;8731;50.364;8.958;2024-01-16T18:56:33;23.07;;;12.93;;
17228;SDS011;8731;50.364;8.958;2024-01-16T19:00:57;38.10;;;16.30;;
17228;SDS011;8731;50.364;8.958;2024-01-16T19:05:22;100.63;;;34.23;;
17228;SDS011;8731;50.364;8.958;2024-01-16T19:09:46;36.87;;;18.80;;
17228;SDS011;8731;50.364;8.958;2024-01-16T19:14:08;21.83;;;13.93;;
17228;SDS011;8731;50.364;8.958;2024-01-16T19:18:32;23.57;;;13.33;;
17228;SDS011;8731;50.364;8.958;2024-01-16T19:22:55;22.13;;;12.53;;
17228;SDS011;8731;50.364;8.958;2024-01-16T19:27:19;19.33;;;12.10;;
17228;SDS011;8731;50.364;8.958;2024-01-16T19:31:43;20.27;;;11.60;;
17228;SDS011;8731;50.364;8.958;2024-01-16T19:36:06;25.17;;;15.70;;
17228;SDS011;8731;50.364;8.958;2024-01-16T19:40:31;26.90;;;17.60;;
17228;SDS011;8731;50.364;8.958;2024-01-16T19:44:55;24.20;;;11.30;;
17228;SDS011;8731;50.364;8.958;2024-01-16T19:49:18;17.73;;;11.00;;
17228;SDS011;8731;50.364;8.958;2024-01-16T19:53:41;17.43;;;11.27;;
17228;SDS011;8731;50.364;8.958;2024-01-16T19:58:05;19.47;;;10.20;;
17228;SDS011;8731;50.364;8.958;2024-01-16T20:02:35;17.13;;;10.20;;
17228;SDS011;8731;50.364;8.958;2024-01-16T20:06:57;19.10;;;11.77;;
17228;SDS011;8731;50.364;8.958;2024-01-16T20:11:24;21.63;;;11.03;;
17228;SDS011;8731;50.364;8.958;2024-01-16T20:15:48;16.97;;;10.80;;
17228;SDS011;8731;50.364;8.958;2024-01-16T20:20:12;18.00;;;9.77;;
17228;SDS011;8731;50.364;8.958;2024-01-16T20:24:36;18.17;;;9.97;;
17228;SDS011;8731;50.364;8.958;2024-01-16T20:28:58;20.80;;;11.03;;
17228;SDS011;8731;50.364;8.958;2024-01-16T20:33:21;20.83;;;10.80;;
17228;SDS011;8731;50.364;8.958;2024-01-16T20:37:47;21.33;;;10.80;;
17228;SDS011;8731;50.364;8.958;2024-01-16T20:42:10;19.57;;;11.17;;
17228;SDS011;8731;50.364;8.958;2024-01-16T20:46:32;19.30;;;9.53;;
17228;SDS011;8731;50.364;8.958;2024-01-16T20:50:55;25.60;;;11.77;;
17228;SDS011;8731;50.364;8.958;2024-01-16T20:55:19;31.33;;;13.83;;
17228;SDS011;8731;50.364;8.958;2024-01-16T20:59:42;23.23;;;11.63;;
17228;SDS011;8731;50.364;8.958;2024-01-16T21:04:05;28.33;;;12.07;;
17228;SDS011;8731;50.364;8.958;2024-01-16T21:08:29;23.70;;;11.60;;
17228;SDS011;8731;50.364;8.958;2024-01-16T21:12:53;24.47;;;11.87;;
17228;SDS011;8731;50.364;8.958;2024-01-16T21:17:16;23.27;;;10.27;;
17228;SDS011;8731;50.364;8.958;2024-01-16T21:21:41;14.80;;;8.07;;
17228;SDS011;8731;50.364;8.958;2024-01-16T21:26:06;15.37;;;8.60;;
17228;SDS011;8731;50.364;8.958;2024-01-16T21:30:31;16.00;;;8.47;;
17228;SDS011;8731;50.364;8.958;2024-01-16T21:34:55;18.07;;;8.37;;
17228;SDS011;8731;50.364;8.958;2024-01-16T21:39:19;18.20;;;10.40;;
17228;SDS011;8731;50.364;8.958;2024-01-16T21:43:42;23.97;;;13.10;;
17228;SDS011;8731;50.364;8.958;2024-01-16T21:48:07;37.73;;;16.73;;
17228;SDS011;8731;50.364;8.958;2024-01-16T21:52:30;50.10;;;22.20;;
17228;SDS011;8731;50.364;8.958;2024-01-16T21:56:53;27.87;;;13.93;;
17228;SDS011;8731;50.364;8.958;2024-01-16T22:01:18;70.57;;;27.83;;
17228;SDS011;8731;50.364;8.958;2024-01-16T22:05:43;111.13;;;38.60;;
17228;SDS011;8731;50.364;8.958;2024-01-16T22:10:06;85.67;;;32.13;;
17228;SDS011;8731;50.364;8.958;2024-01-16T22:14:31;27.17;;;14.67;;
17228;SDS011;8731;50.364;8.958;2024-01-16T22:18:54;20.53;;;10.80;;
17228;SDS011;8731;50.364;8.958;2024-01-16T22:23:18;20.97;;;10.30;;
17228;SDS011;8731;50.364;8.958;2024-01-16T22:27:41;14.43;;;8.20;;
17228;SDS011;8731;50.364;8.958;2024-01-16T22:32:04;14.77;;;8.50;;
17228;SDS011;8731;50.364;8.958;2024-01-16T22:36:27;14.70;;;8.20;;
17228;SDS011;8731;50.364;8.958;2024-01-16T22:40:51;14.17;;;7.97;;
17228;SDS011;8731;50.364;8.958;2024-01-16T22:45:13;11.77;;;7.67;;
17228;SDS011;8731;50.364;8.958;2024-01-16T22:49:37;16.97;;;8.67;;
17228;SDS011;8731;50.364;8.958;2024-01-16T22:53:59;20.43;;;9.60;;
17228;SDS011;8731;50.364;8.958;2024-01-16T22:58:23;11.37;;;6.43;;
17228;SDS011;8731;50.364;8.958;2024-01-16T23:02:47;14.33;;;7.90;;
17228;SDS011;8731;50.364;8.958;2024-01-16T23:07:10;10.10;;;7.00;;
17228;SDS011;8731;50.364;8.958;2024-01-16T23:11:33;14.07;;;7.10;;
17228;SDS011;8731;50.364;8.958;2024-01-16T23:15:56;15.20;;;7.07;;
17228;SDS011;8731;50.364;8.958;2024-01-16T23:20:19;12.50;;;6.83;;
17228;SDS011;8731;50.364;8.958;2024-01-16T23:24:41;21.20;;;10.67;;
17228;SDS011;8731;50.364;8.958;2024-01-16T23:29:05;21.00;;;11.10;;
17228;SDS011;8731;50.364;8.958;2024-01-16T23:33:29;24.13;;;12.77;;
17228;SDS011;8731;50.364;8.958;2024-01-16T23:37:52;19.77;;;10.63;;
17228;SDS011;8731;50.364;8.958;2024-01-16T23:42:24;16.17;;;7.80;;
17228;SDS011;8731;50.364;8.958;2024-01-16T23:46:51;15.87;;;6.47;;
17228;SDS011;8731;50.364;8.958;2024-01-16T23:51:15;12.27;;;6.87;;
17228;SDS011;8731;50.364;8.958;2024-01-16T23:55:38;12.27;;;6.40;;
